Colorado Springs, CO (80970)

8:40 AM MST on March 02, 2015 (GMT -0700)
LaCresta Mobile Estates # 153 | Change Station
CLOSE
Current Station
Personal Weather Station
Location: Colorado Springs, CO
Elevation: 6191 ft
Nearby Weather Stations

Elev 6191 ft 38.83 °N, 104.74 °W | Updated 33 seconds ago

Light Snow
Light Snow Mist
22.1 °F
Feels Like 16 °F
N
4.9
Wind Variable Wind from SW
Gusts 4.9 mph

Today
High -- | Low -- °F
--% Chance of Precip.
Yesterday
High -- | Low -- °F
Precip. -- in
6:30 AM 5:52 PM
Waxing Gibbous, 92% visible
Pressure 30.19 in
Visibility 2.0 miles
Clouds Overcast 600 ft
Windchill 16 °F
Dew Point 20 °F
Humidity 92%
Rainfall 0.00 in
Snow Depth Not available.
UV 0 out of 12
Pollen .70 out of 12
Air Quality Not available.
Flu Activity Not available.
METAR KCOS 021454Z 21006KT 2SM -SN BR OVC006 M07/M08 A3000 RMK AO2 SNB51 SLP221 PCPN VRY LGT P0000 60000 I3001 T10671078 58017

More Conditions Fewer Conditions

Pressure 30.19 in
Visibility 2.0 miles
Clouds Overcast 600 ft
Windchill 16 °F
Dew Point 20 °F
Humidity 92%
Rainfall 0.00 in
Snow Depth Not available.
UV 0 out of 12
Pollen .70 out of 12
Air Quality Not available.
Flu Activity Not available.
METAR KCOS 021454Z 21006KT 2SM -SN BR OVC006 M07/M08 A3000 RMK AO2 SNB51 SLP221 PCPN VRY LGT P0000 60000 I3001 T10671078 58017

More Conditions Fewer Conditions

10-Day Weather Forecast

Almanac

Astronomy

Mar. 02, 2015 Rise Set
Actual Time
Civil Twilight
Nautical Twilight
Astronomical Twilight
Moon
Length of Visible Light
Length of Day
Tomorrow will be .
, % of the Moon is Illuminated

Today's Extremes

State Highs State Lows

Community

WunderPhotos

Upload Photos

1,801,823 photos uploaded!

WunderBlogs® & News

Nearby

Air Quality

  Air Quality AQ Index Pollutant
Not available.

Snow Depth

Station Depth Elevation

Earthquake Activity

City Distance Mag. Time & Date
Minimum magnitude displayed is 2.5.

Coastal Water Temperatures

Place Temperature

Nearby Weather Stations